sensor_id;sensor_type;location;lat;lon;timestamp;pressure;altitude;pressure_sealevel;temperature;humidity
6942;BME280;3510;43.200;27.920;2022-10-16T00:00:29;101785.16;;;19.83;44.23
6942;BME280;3510;43.200;27.920;2022-10-16T00:02:55;101779.34;;;19.99;43.72
6942;BME280;3510;43.200;27.920;2022-10-16T00:05:22;101781.34;;;19.37;44.97
6942;BME280;3510;43.200;27.920;2022-10-16T00:07:50;101785.88;;;19.68;44.28
6942;BME280;3510;43.200;27.920;2022-10-16T00:10:17;101781.13;;;19.87;43.80
6942;BME280;3510;43.200;27.920;2022-10-16T00:12:43;101791.56;;;19.64;44.49
6942;BME280;3510;43.200;27.920;2022-10-16T00:15:11;101791.25;;;19.99;43.67
6942;BME280;3510;43.200;27.920;2022-10-16T00:17:37;101800.00;;;19.49;44.62
6942;BME280;3510;43.200;27.920;2022-10-16T00:20:04;101795.50;;;19.72;44.25
6942;BME280;3510;43.200;27.920;2022-10-16T00:22:31;101785.66;;;19.51;44.61
6942;BME280;3510;43.200;27.920;2022-10-16T00:25:00;101797.69;;;19.01;45.92
6942;BME280;3510;43.200;27.920;2022-10-16T00:27:26;101790.78;;;20.19;43.36
6942;BME280;3510;43.200;27.920;2022-10-16T00:29:53;101791.94;;;19.30;45.04
6942;BME280;3510;43.200;27.920;2022-10-16T00:32:20;101791.75;;;19.40;45.11
6942;BME280;3510;43.200;27.920;2022-10-16T00:34:46;101795.69;;;19.62;44.32
6942;BME280;3510;43.200;27.920;2022-10-16T00:37:13;101790.25;;;19.04;45.15
6942;BME280;3510;43.200;27.920;2022-10-16T00:39:40;101788.44;;;18.90;45.68
6942;BME280;3510;43.200;27.920;2022-10-16T00:42:09;101793.13;;;19.62;44.36
6942;BME280;3510;43.200;27.920;2022-10-16T00:44:44;101787.28;;;18.98;45.23
6942;BME280;3510;43.200;27.920;2022-10-16T00:47:11;101792.63;;;19.41;44.58
6942;BME280;3510;43.200;27.920;2022-10-16T00:49:39;101787.41;;;18.99;44.90
6942;BME280;3510;43.200;27.920;2022-10-16T00:52:06;101781.53;;;19.53;44.04
6942;BME280;3510;43.200;27.920;2022-10-16T00:54:32;101776.81;;;19.59;44.05
6942;BME280;3510;43.200;27.920;2022-10-16T00:57:01;101783.19;;;19.26;44.47
6942;BME280;3510;43.200;27.920;2022-10-16T00:59:30;101779.53;;;18.96;45.00
6942;BME280;3510;43.200;27.920;2022-10-16T01:02:00;101785.47;;;19.62;43.95
6942;BME280;3510;43.200;27.920;2022-10-16T01:04:28;101787.44;;;19.52;43.84
6942;BME280;3510;43.200;27.920;2022-10-16T01:06:59;101789.88;;;19.24;43.95
6942;BME280;3510;43.200;27.920;2022-10-16T01:09:31;101787.63;;;19.82;42.80
6942;BME280;3510;43.200;27.920;2022-10-16T01:12:05;101792.56;;;19.66;42.79
6942;BME280;3510;43.200;27.920;2022-10-16T01:14:35;101802.06;;;19.28;43.96
6942;BME280;3510;43.200;27.920;2022-10-16T01:17:06;101796.44;;;19.07;44.54
6942;BME280;3510;43.200;27.920;2022-10-16T01:19:38;101814.56;;;19.64;43.25
6942;BME280;3510;43.200;27.920;2022-10-16T01:22:08;101814.03;;;18.41;45.62
6942;BME280;3510;43.200;27.920;2022-10-16T01:24:37;101813.72;;;18.73;44.86
6942;BME280;3510;43.200;27.920;2022-10-16T01:27:12;101807.03;;;19.00;44.05
6942;BME280;3510;43.200;27.920;2022-10-16T01:29:42;101811.22;;;19.78;42.54
6942;BME280;3510;43.200;27.920;2022-10-16T01:32:15;101819.72;;;18.74;44.60
6942;BME280;3510;43.200;27.920;2022-10-16T01:34:44;101822.69;;;19.58;42.88
6942;BME280;3510;43.200;27.920;2022-10-16T01:37:14;101828.63;;;18.55;45.11
6942;BME280;3510;43.200;27.920;2022-10-16T01:39:42;101820.53;;;18.86;44.49
6942;BME280;3510;43.200;27.920;2022-10-16T01:42:11;101826.06;;;18.55;45.16
6942;BME280;3510;43.200;27.920;2022-10-16T01:44:41;101839.63;;;18.54;45.24
6942;BME280;3510;43.200;27.920;2022-10-16T01:47:10;101832.69;;;18.77;44.60
6942;BME280;3510;43.200;27.920;2022-10-16T01:49:37;101823.00;;;18.98;44.26
6942;BME280;3510;43.200;27.920;2022-10-16T01:52:05;101836.75;;;19.00;44.35
6942;BME280;3510;43.200;27.920;2022-10-16T01:54:34;101840.25;;;18.27;45.29
6942;BME280;3510;43.200;27.920;2022-10-16T01:57:02;101814.88;;;19.03;43.62
6942;BME280;3510;43.200;27.920;2022-10-16T01:59:40;101817.81;;;18.71;44.36
6942;BME280;3510;43.200;27.920;2022-10-16T02:02:17;101821.31;;;19.50;42.53
6942;BME280;3510;43.200;27.920;2022-10-16T02:04:45;101826.22;;;18.82;43.83
6942;BME280;3510;43.200;27.920;2022-10-16T02:07:12;101831.78;;;18.65;44.07
6942;BME280;3510;43.200;27.920;2022-10-16T02:09:39;101831.34;;;18.95;43.64
6942;BME280;3510;43.200;27.920;2022-10-16T02:12:09;101831.50;;;18.85;43.62
6942;BME280;3510;43.200;27.920;2022-10-16T02:14:37;101830.91;;;19.27;42.86
6942;BME280;3510;43.200;27.920;2022-10-16T02:17:09;101843.13;;;18.93;43.04
6942;BME280;3510;43.200;27.920;2022-10-16T02:19:38;101838.56;;;19.14;42.47
6942;BME280;3510;43.200;27.920;2022-10-16T02:22:05;101836.59;;;19.23;42.38
6942;BME280;3510;43.200;27.920;2022-10-16T02:24:38;101843.44;;;20.02;40.94
6942;BME280;3510;43.200;27.920;2022-10-16T02:27:06;101837.56;;;19.12;42.46
6942;BME280;3510;43.200;27.920;2022-10-16T02:29:37;101843.16;;;19.20;42.55
6942;BME280;3510;43.200;27.920;2022-10-16T02:32:05;101844.44;;;19.78;40.73
6942;BME280;3510;43.200;27.920;2022-10-16T02:34:33;101849.38;;;18.85;42.01
6942;BME280;3510;43.200;27.920;2022-10-16T02:37:02;101846.66;;;18.95;42.16
6942;BME280;3510;43.200;27.920;2022-10-16T02:39:30;101855.94;;;18.45;43.07
6942;BME280;3510;43.200;27.920;2022-10-16T02:41:57;101846.34;;;18.91;42.05
6942;BME280;3510;43.200;27.920;2022-10-16T02:44:24;101853.38;;;18.08;43.23
6942;BME280;3510;43.200;27.920;2022-10-16T02:46:51;101847.28;;;17.71;44.53
6942;BME280;3510;43.200;27.920;2022-10-16T02:49:18;101850.66;;;17.24;45.65
6942;BME280;3510;43.200;27.920;2022-10-16T02:51:45;101853.25;;;17.59;44.48
6942;BME280;3510;43.200;27.920;2022-10-16T02:54:13;101863.78;;;17.99;43.57
6942;BME280;3510;43.200;27.920;2022-10-16T02:56:40;101875.44;;;17.96;43.48
6942;BME280;3510;43.200;27.920;2022-10-16T02:59:07;101856.69;;;17.72;43.86
6942;BME280;3510;43.200;27.920;2022-10-16T03:01:34;101847.84;;;17.66;43.88
6942;BME280;3510;43.200;27.920;2022-10-16T03:04:01;101854.31;;;17.28;44.49
6942;BME280;3510;43.200;27.920;2022-10-16T03:06:28;101852.47;;;18.07;42.68
6942;BME280;3510;43.200;27.920;2022-10-16T03:08:55;101852.13;;;18.14;42.57
6942;BME280;3510;43.200;27.920;2022-10-16T03:11:23;101851.66;;;18.57;41.65
6942;BME280;3510;43.200;27.920;2022-10-16T03:13:50;101850.72;;;18.68;41.48
6942;BME280;3510;43.200;27.920;2022-10-16T03:16:17;101861.78;;;18.55;41.41
6942;BME280;3510;43.200;27.920;2022-10-16T03:18:47;101840.03;;;19.24;39.97
6942;BME280;3510;43.200;27.920;2022-10-16T03:21:15;101861.63;;;19.80;39.19
6942;BME280;3510;43.200;27.920;2022-10-16T03:23:42;101856.19;;;19.36;39.89
6942;BME280;3510;43.200;27.920;2022-10-16T03:26:09;101871.53;;;19.89;38.77
6942;BME280;3510;43.200;27.920;2022-10-16T03:28:37;101860.31;;;19.47;39.58
6942;BME280;3510;43.200;27.920;2022-10-16T03:31:04;101871.03;;;19.68;39.15
6942;BME280;3510;43.200;27.920;2022-10-16T03:33:31;101861.44;;;19.77;39.15
6942;BME280;3510;43.200;27.920;2022-10-16T03:35:58;101869.75;;;20.15;38.25
6942;BME280;3510;43.200;27.920;2022-10-16T03:38:25;101861.69;;;19.04;40.16
6942;BME280;3510;43.200;27.920;2022-10-16T03:40:53;101870.31;;;18.56;40.85
6942;BME280;3510;43.200;27.920;2022-10-16T03:43:34;101875.59;;;19.21;40.15
6942;BME280;3510;43.200;27.920;2022-10-16T03:46:02;101890.59;;;18.54;41.34
6942;BME280;3510;43.200;27.920;2022-10-16T03:48:29;101885.41;;;17.81;42.87
6942;BME280;3510;43.200;27.920;2022-10-16T03:50:57;101884.59;;;19.16;40.24
6942;BME280;3510;43.200;27.920;2022-10-16T03:53:25;101883.50;;;18.13;42.10
6942;BME280;3510;43.200;27.920;2022-10-16T03:55:52;101876.75;;;18.02;42.72
6942;BME280;3510;43.200;27.920;2022-10-16T03:58:19;101863.78;;;18.11;42.39
6942;BME280;3510;43.200;27.920;2022-10-16T04:00:46;101875.88;;;18.38;42.00
6942;BME280;3510;43.200;27.920;2022-10-16T04:03:15;101870.25;;;18.68;41.14
6942;BME280;3510;43.200;27.920;2022-10-16T04:05:44;101878.19;;;17.99;42.62
6942;BME280;3510;43.200;27.920;2022-10-16T04:08:11;101873.53;;;17.70;43.27
6942;BME280;3510;43.200;27.920;2022-10-16T04:10:38;101880.41;;;18.54;41.54
6942;BME280;3510;43.200;27.920;2022-10-16T04:13:05;101893.78;;;18.63;41.54
6942;BME280;3510;43.200;27.920;2022-10-16T04:15:32;101880.94;;;18.62;40.99
6942;BME280;3510;43.200;27.920;2022-10-16T04:17:58;101876.13;;;19.17;40.56
6942;BME280;3510;43.200;27.920;2022-10-16T04:20:27;101884.34;;;18.99;40.58
6942;BME280;3510;43.200;27.920;2022-10-16T04:22:54;101884.84;;;19.45;39.63
6942;BME280;3510;43.200;27.920;2022-10-16T04:25:21;101881.25;;;19.17;40.69
6942;BME280;3510;43.200;27.920;2022-10-16T04:27:48;101881.44;;;19.20;40.34
6942;BME280;3510;43.200;27.920;2022-10-16T04:30:15;101895.09;;;19.58;39.42
6942;BME280;3510;43.200;27.920;2022-10-16T04:32:42;101893.09;;;20.21;38.58
6942;BME280;3510;43.200;27.920;2022-10-16T04:35:09;101892.97;;;19.78;39.27
6942;BME280;3510;43.200;27.920;2022-10-16T04:37:37;101889.25;;;19.73;39.02
6942;BME280;3510;43.200;27.920;2022-10-16T04:40:05;101886.38;;;19.68;39.46
6942;BME280;3510;43.200;27.920;2022-10-16T04:42:32;101902.41;;;19.92;38.84
6942;BME280;3510;43.200;27.920;2022-10-16T04:44:59;101901.28;;;20.28;38.32
6942;BME280;3510;43.200;27.920;2022-10-16T04:47:26;101907.00;;;19.98;38.63
6942;BME280;3510;43.200;27.920;2022-10-16T04:49:53;101901.06;;;19.59;39.64
6942;BME280;3510;43.200;27.920;2022-10-16T04:52:20;101907.50;;;19.79;38.93
6942;BME280;3510;43.200;27.920;2022-10-16T04:54:51;101911.13;;;19.82;38.91
6942;BME280;3510;43.200;27.920;2022-10-16T04:57:19;101905.25;;;20.65;37.46
6942;BME280;3510;43.200;27.920;2022-10-16T04:59:46;101916.13;;;19.68;38.94
6942;BME280;3510;43.200;27.920;2022-10-16T05:02:13;101919.25;;;20.43;37.50
6942;BME280;3510;43.200;27.920;2022-10-16T05:04:40;101920.84;;;19.62;39.43
6942;BME280;3510;43.200;27.920;2022-10-16T05:07:07;101915.72;;;20.28;38.18
6942;BME280;3510;43.200;27.920;2022-10-16T05:09:34;101921.00;;;20.86;36.94
6942;BME280;3510;43.200;27.920;2022-10-16T05:12:02;101918.53;;;19.91;38.48
6942;BME280;3510;43.200;27.920;2022-10-16T05:14:30;101928.50;;;21.11;36.46
6942;BME280;3510;43.200;27.920;2022-10-16T05:16:57;101935.00;;;19.70;38.41
6942;BME280;3510;43.200;27.920;2022-10-16T05:19:24;101925.09;;;20.69;36.91
6942;BME280;3510;43.200;27.920;2022-10-16T05:21:51;101943.72;;;19.22;39.10
6942;BME280;3510;43.200;27.920;2022-10-16T05:24:18;101941.88;;;19.32;39.77
6942;BME280;3510;43.200;27.920;2022-10-16T05:26:45;101945.34;;;19.98;38.73
6942;BME280;3510;43.200;27.920;2022-10-16T05:29:13;101949.84;;;19.62;39.60
6942;BME280;3510;43.200;27.920;2022-10-16T05:31:40;101959.75;;;19.07;40.27
6942;BME280;3510;43.200;27.920;2022-10-16T05:34:07;101957.03;;;18.93;40.05
6942;BME280;3510;43.200;27.920;2022-10-16T05:36:34;101956.84;;;19.53;39.10
6942;BME280;3510;43.200;27.920;2022-10-16T05:39:01;101958.22;;;20.13;38.30
6942;BME280;3510;43.200;27.920;2022-10-16T05:41:28;101958.75;;;19.30;39.38
6942;BME280;3510;43.200;27.920;2022-10-16T05:43:55;101978.66;;;19.23;39.74
6942;BME280;3510;43.200;27.920;2022-10-16T05:46:24;101977.53;;;18.22;41.60
6942;BME280;3510;43.200;27.920;2022-10-16T05:48:52;101969.88;;;19.06;39.62
6942;BME280;3510;43.200;27.920;2022-10-16T05:51:19;101965.38;;;19.53;38.85
6942;BME280;3510;43.200;27.920;2022-10-16T05:53:46;101968.81;;;19.66;38.83
6942;BME280;3510;43.200;27.920;2022-10-16T05:56:13;101984.66;;;20.13;37.82
6942;BME280;3510;43.200;27.920;2022-10-16T05:58:40;101975.69;;;20.46;37.25
6942;BME280;3510;43.200;27.920;2022-10-16T06:01:11;101975.72;;;20.20;37.61
6942;BME280;3510;43.200;27.920;2022-10-16T06:03:39;101992.16;;;20.10;38.02
6942;BME280;3510;43.200;27.920;2022-10-16T06:06:10;101992.59;;;19.78;38.18
6942;BME280;3510;43.200;27.920;2022-10-16T06:08:38;101998.91;;;20.10;38.11
6942;BME280;3510;43.200;27.920;2022-10-16T06:11:07;102003.06;;;20.08;38.04
6942;BME280;3510;43.200;27.920;2022-10-16T06:13:34;102002.84;;;20.44;37.29
6942;BME280;3510;43.200;27.920;2022-10-16T06:16:02;102000.69;;;19.59;38.59
6942;BME280;3510;43.200;27.920;2022-10-16T06:18:30;101996.63;;;19.74;38.60
6942;BME280;3510;43.200;27.920;2022-10-16T06:20:58;101998.13;;;20.77;36.85
6942;BME280;3510;43.200;27.920;2022-10-16T06:23:25;101995.38;;;20.21;37.85
6942;BME280;3510;43.200;27.920;2022-10-16T06:25:54;102006.81;;;20.52;37.09
6942;BME280;3510;43.200;27.920;2022-10-16T06:28:30;102005.78;;;22.20;34.43
6942;BME280;3510;43.200;27.920;2022-10-16T06:30:59;102019.59;;;20.52;37.50
6942;BME280;3510;43.200;27.920;2022-10-16T06:33:25;102003.09;;;21.17;36.63
6942;BME280;3510;43.200;27.920;2022-10-16T06:35:52;102011.09;;;21.79;35.43
6942;BME280;3510;43.200;27.920;2022-10-16T06:38:20;102009.53;;;20.69;37.33
6942;BME280;3510;43.200;27.920;2022-10-16T06:40:47;102006.22;;;21.26;36.70
6942;BME280;3510;43.200;27.920;2022-10-16T06:43:14;102015.53;;;21.39;36.36
6942;BME280;3510;43.200;27.920;2022-10-16T06:45:41;102019.47;;;21.06;36.94
6942;BME280;3510;43.200;27.920;2022-10-16T06:48:08;102027.00;;;21.88;35.82
6942;BME280;3510;43.200;27.920;2022-10-16T06:50:35;102029.91;;;22.09;35.31
6942;BME280;3510;43.200;27.920;2022-10-16T06:53:02;102032.31;;;22.21;35.35
6942;BME280;3510;43.200;27.920;2022-10-16T06:55:30;102025.41;;;22.97;34.15
6942;BME280;3510;43.200;27.920;2022-10-16T06:57:57;102040.09;;;23.32;33.76
6942;BME280;3510;43.200;27.920;2022-10-16T07:00:24;102030.47;;;22.96;34.18
6942;BME280;3510;43.200;27.920;2022-10-16T07:02:53;102036.84;;;23.85;33.19
6942;BME280;3510;43.200;27.920;2022-10-16T07:05:19;102040.66;;;22.79;34.56
6942;BME280;3510;43.200;27.920;2022-10-16T07:07:46;102036.09;;;24.22;32.89
6942;BME280;3510;43.200;27.920;2022-10-16T07:10:13;102041.69;;;23.79;32.91
6942;BME280;3510;43.200;27.920;2022-10-16T07:12:42;102052.25;;;23.18;33.84
6942;BME280;3510;43.200;27.920;2022-10-16T07:15:10;102053.25;;;23.06;34.41
6942;BME280;3510;43.200;27.920;2022-10-16T07:17:38;102036.81;;;23.51;33.44
6942;BME280;3510;43.200;27.920;2022-10-16T07:20:06;102047.00;;;24.00;33.06
6942;BME280;3510;43.200;27.920;2022-10-16T07:22:33;102050.50;;;24.54;32.25
6942;BME280;3510;43.200;27.920;2022-10-16T07:25:00;102050.69;;;24.05;32.15
6942;BME280;3510;43.200;27.920;2022-10-16T07:27:28;102051.78;;;22.17;35.08
6942;BME280;3510;43.200;27.920;2022-10-16T07:29:56;102047.38;;;22.61;34.73
6942;BME280;3510;43.200;27.920;2022-10-16T07:32:23;102051.03;;;22.81;34.66
6942;BME280;3510;43.200;27.920;2022-10-16T07:34:51;102056.50;;;23.18;33.99
6942;BME280;3510;43.200;27.920;2022-10-16T07:37:18;102048.47;;;22.96;33.87
6942;BME280;3510;43.200;27.920;2022-10-16T07:39:45;102046.78;;;23.29;33.69
6942;BME280;3510;43.200;27.920;2022-10-16T07:42:11;102057.81;;;22.64;34.63
6942;BME280;3510;43.200;27.920;2022-10-16T07:44:38;102059.31;;;23.23;34.07
6942;BME280;3510;43.200;27.920;2022-10-16T07:47:07;102062.19;;;23.12;33.68
6942;BME280;3510;43.200;27.920;2022-10-16T07:49:34;102052.84;;;23.80;32.91
6942;BME280;3510;43.200;27.920;2022-10-16T07:52:01;102070.91;;;23.65;32.80
6942;BME280;3510;43.200;27.920;2022-10-16T07:54:28;102060.00;;;23.53;33.52
6942;BME280;3510;43.200;27.920;2022-10-16T07:56:55;102063.84;;;22.96;33.81
6942;BME280;3510;43.200;27.920;2022-10-16T07:59:22;102061.03;;;22.76;34.35
6942;BME280;3510;43.200;27.920;2022-10-16T08:01:49;102060.09;;;23.71;33.28
6942;BME280;3510;43.200;27.920;2022-10-16T08:04:18;102050.88;;;24.26;32.22
6942;BME280;3510;43.200;27.920;2022-10-16T08:06:44;102063.41;;;22.57;33.67
6942;BME280;3510;43.200;27.920;2022-10-16T08:09:11;102054.81;;;23.51;32.67
6942;BME280;3510;43.200;27.920;2022-10-16T08:11:38;102058.25;;;23.52;32.20
6942;BME280;3510;43.200;27.920;2022-10-16T08:14:05;102065.69;;;23.47;31.98
6942;BME280;3510;43.200;27.920;2022-10-16T08:16:32;102048.72;;;24.00;31.51
6942;BME280;3510;43.200;27.920;2022-10-16T08:18:59;102071.81;;;23.00;32.89
6942;BME280;3510;43.200;27.920;2022-10-16T08:21:28;102048.13;;;23.38;32.39
6942;BME280;3510;43.200;27.920;2022-10-16T08:23:54;102054.97;;;23.71;31.73
6942;BME280;3510;43.200;27.920;2022-10-16T08:26:21;102062.47;;;23.02;32.99
6942;BME280;3510;43.200;27.920;2022-10-16T08:28:49;102054.41;;;23.27;32.78
6942;BME280;3510;43.200;27.920;2022-10-16T08:31:17;102044.78;;;24.42;31.39
6942;BME280;3510;43.200;27.920;2022-10-16T08:33:44;102047.00;;;23.66;32.02
6942;BME280;3510;43.200;27.920;2022-10-16T08:36:13;102042.56;;;23.63;32.13
6942;BME280;3510;43.200;27.920;2022-10-16T08:38:41;102065.06;;;23.35;32.25
6942;BME280;3510;43.200;27.920;2022-10-16T08:41:21;102064.81;;;22.98;32.42
6942;BME280;3510;43.200;27.920;2022-10-16T08:44:11;102052.56;;;23.91;31.23
6942;BME280;3510;43.200;27.920;2022-10-16T08:46:51;102054.75;;;24.18;31.01
6942;BME280;3510;43.200;27.920;2022-10-16T08:49:21;102071.09;;;23.35;32.13
6942;BME280;3510;43.200;27.920;2022-10-16T08:51:50;102050.88;;;23.74;31.20
6942;BME280;3510;43.200;27.920;2022-10-16T08:54:28;102074.56;;;23.85;31.24
6942;BME280;3510;43.200;27.920;2022-10-16T08:56:56;102058.66;;;23.27;32.06
6942;BME280;3510;43.200;27.920;2022-10-16T08:59:23;102071.00;;;23.50;31.94
6942;BME280;3510;43.200;27.920;2022-10-16T09:01:51;102079.53;;;23.16;32.05
6942;BME280;3510;43.200;27.920;2022-10-16T09:04:48;102076.41;;;23.55;30.95
6942;BME280;3510;43.200;27.920;2022-10-16T09:07:25;102037.09;;;23.57;31.54
6942;BME280;3510;43.200;27.920;2022-10-16T09:10:14;102075.47;;;24.55;30.08
6942;BME280;3510;43.200;27.920;2022-10-16T09:12:49;102067.22;;;23.60;31.27
6942;BME280;3510;43.200;27.920;2022-10-16T09:15:25;102092.78;;;23.57;31.06
6942;BME280;3510;43.200;27.920;2022-10-16T09:18:01;102065.97;;;23.68;30.72
6942;BME280;3510;43.200;27.920;2022-10-16T09:20:35;102068.47;;;23.34;31.80
6942;BME280;3510;43.200;27.920;2022-10-16T09:23:25;102054.44;;;24.12;30.23
6942;BME280;3510;43.200;27.920;2022-10-16T09:25:55;102049.09;;;24.07;31.02
6942;BME280;3510;43.200;27.920;2022-10-16T09:28:23;102052.28;;;24.93;29.74
6942;BME280;3510;43.200;27.920;2022-10-16T09:30:51;102060.47;;;25.21;30.07
6942;BME280;3510;43.200;27.920;2022-10-16T09:33:19;102068.25;;;25.03;30.58
6942;BME280;3510;43.200;27.920;2022-10-16T09:35:49;102063.75;;;25.37;29.82
6942;BME280;3510;43.200;27.920;2022-10-16T09:38:26;102053.72;;;24.68;29.72
6942;BME280;3510;43.200;27.920;2022-10-16T09:40:57;102068.13;;;24.11;30.57
6942;BME280;3510;43.200;27.920;2022-10-16T09:43:26;102057.88;;;23.95;30.03
6942;BME280;3510;43.200;27.920;2022-10-16T09:46:00;102059.91;;;24.54;29.86
6942;BME280;3510;43.200;27.920;2022-10-16T09:48:31;102057.59;;;24.96;29.31
6942;BME280;3510;43.200;27.920;2022-10-16T09:51:01;102057.97;;;23.96;29.90
6942;BME280;3510;43.200;27.920;2022-10-16T09:53:40;102056.88;;;24.80;28.99
6942;BME280;3510;43.200;27.920;2022-10-16T09:56:10;102052.22;;;25.48;29.03
6942;BME280;3510;43.200;27.920;2022-10-16T09:58:42;102038.25;;;25.64;28.29
6942;BME280;3510;43.200;27.920;2022-10-16T10:01:13;102043.47;;;25.85;28.00
6942;BME280;3510;43.200;27.920;2022-10-16T10:03:41;102048.50;;;26.02;28.07
6942;BME280;3510;43.200;27.920;2022-10-16T10:06:18;102046.72;;;25.03;29.79
6942;BME280;3510;43.200;27.920;2022-10-16T10:08:59;102057.78;;;25.18;29.15
6942;BME280;3510;43.200;27.920;2022-10-16T10:11:58;102057.03;;;25.40;27.51
6942;BME280;3510;43.200;27.920;2022-10-16T10:14:28;102055.94;;;25.75;28.66
6942;BME280;3510;43.200;27.920;2022-10-16T10:17:11;102059.38;;;25.16;28.45
6942;BME280;3510;43.200;27.920;2022-10-16T10:19:40;102053.34;;;25.16;28.53
6942;BME280;3510;43.200;27.920;2022-10-16T10:22:17;102053.34;;;25.35;28.84
6942;BME280;3510;43.200;27.920;2022-10-16T10:24:54;102051.72;;;25.18;28.55
6942;BME280;3510;43.200;27.920;2022-10-16T10:27:26;102046.81;;;25.82;27.51
6942;BME280;3510;43.200;27.920;2022-10-16T10:30:01;102053.56;;;25.99;27.54
6942;BME280;3510;43.200;27.920;2022-10-16T10:32:35;102056.84;;;24.43;29.39
6942;BME280;3510;43.200;27.920;2022-10-16T10:35:14;102051.50;;;25.32;28.19
6942;BME280;3510;43.200;27.920;2022-10-16T10:37:53;102048.88;;;26.12;27.79
6942;BME280;3510;43.200;27.920;2022-10-16T10:40:30;102052.13;;;26.28;29.04
6942;BME280;3510;43.200;27.920;2022-10-16T10:43:06;102046.59;;;25.77;29.73
6942;BME280;3510;43.200;27.920;2022-10-16T10:45:42;102053.66;;;26.02;29.62
6942;BME280;3510;43.200;27.920;2022-10-16T10:48:20;102031.84;;;25.75;30.15
6942;BME280;3510;43.200;27.920;2022-10-16T10:50:53;102040.13;;;26.08;29.13
6942;BME280;3510;43.200;27.920;2022-10-16T10:53:33;102046.00;;;26.04;28.70
6942;BME280;3510;43.200;27.920;2022-10-16T10:56:09;102052.50;;;25.75;31.00
6942;BME280;3510;43.200;27.920;2022-10-16T10:59:12;102052.38;;;26.56;30.03
6942;BME280;3510;43.200;27.920;2022-10-16T11:01:50;102033.56;;;25.95;28.71
6942;BME280;3510;43.200;27.920;2022-10-16T11:04:31;102031.81;;;26.15;29.44
6942;BME280;3510;43.200;27.920;2022-10-16T11:07:04;102028.94;;;26.73;28.58
6942;BME280;3510;43.200;27.920;2022-10-16T11:09:34;102025.56;;;26.31;29.75
6942;BME280;3510;43.200;27.920;2022-10-16T11:12:08;102020.09;;;26.02;29.75
6942;BME280;3510;43.200;27.920;2022-10-16T11:14:44;102009.31;;;26.34;30.51
6942;BME280;3510;43.200;27.920;2022-10-16T11:17:15;102029.69;;;25.65;29.83
6942;BME280;3510;43.200;27.920;2022-10-16T11:19:48;102039.13;;;25.83;29.05
6942;BME280;3510;43.200;27.920;2022-10-16T11:22:19;102038.66;;;26.36;29.08
6942;BME280;3510;43.200;27.920;2022-10-16T11:24:53;102053.75;;;26.04;29.61
6942;BME280;3510;43.200;27.920;2022-10-16T11:27:26;102055.91;;;25.54;30.25
6942;BME280;3510;43.200;27.920;2022-10-16T11:29:58;102052.16;;;25.87;30.28
6942;BME280;3510;43.200;27.920;2022-10-16T11:32:30;102042.19;;;25.15;28.41
6942;BME280;3510;43.200;27.920;2022-10-16T11:35:03;102041.88;;;25.88;27.72
6942;BME280;3510;43.200;27.920;2022-10-16T11:37:39;102057.75;;;25.57;28.42
6942;BME280;3510;43.200;27.920;2022-10-16T11:40:19;102057.25;;;26.48;27.94
6942;BME280;3510;43.200;27.920;2022-10-16T11:42:51;102042.50;;;26.24;29.90
6942;BME280;3510;43.200;27.920;2022-10-16T11:45:29;102053.66;;;25.22;32.30
6942;BME280;3510;43.200;27.920;2022-10-16T11:48:02;102046.38;;;26.36;31.09
6942;BME280;3510;43.200;27.920;2022-10-16T11:50:34;102033.72;;;25.98;30.70
6942;BME280;3510;43.200;27.920;2022-10-16T11:53:11;102044.09;;;26.43;31.37
6942;BME280;3510;43.200;27.920;2022-10-16T11:55:41;102032.00;;;24.44;30.29
6942;BME280;3510;43.200;27.920;2022-10-16T11:58:16;102037.38;;;25.44;29.37
6942;BME280;3510;43.200;27.920;2022-10-16T12:00:53;102033.78;;;26.43;29.18
6942;BME280;3510;43.200;27.920;2022-10-16T12:03:27;102028.84;;;26.06;30.60
6942;BME280;3510;43.200;27.920;2022-10-16T12:06:05;102021.91;;;25.63;31.39
6942;BME280;3510;43.200;27.920;2022-10-16T12:08:37;102027.19;;;25.86;31.06
6942;BME280;3510;43.200;27.920;2022-10-16T12:11:08;102022.03;;;25.66;31.30
6942;BME280;3510;43.200;27.920;2022-10-16T12:13:37;102038.19;;;25.81;31.34
6942;BME280;3510;43.200;27.920;2022-10-16T12:16:07;102039.50;;;25.73;31.95
6942;BME280;3510;43.200;27.920;2022-10-16T12:18:46;102041.13;;;25.50;31.96
6942;BME280;3510;43.200;27.920;2022-10-16T12:21:15;102036.41;;;25.61;30.96
6942;BME280;3510;43.200;27.920;2022-10-16T12:23:48;102040.13;;;25.27;32.67
6942;BME280;3510;43.200;27.920;2022-10-16T12:26:24;102031.53;;;25.27;32.57
6942;BME280;3510;43.200;27.920;2022-10-16T12:28:52;102046.66;;;25.19;33.37
6942;BME280;3510;43.200;27.920;2022-10-16T12:31:21;102039.63;;;24.42;33.13
6942;BME280;3510;43.200;27.920;2022-10-16T12:33:57;102049.91;;;25.15;31.85
6942;BME280;3510;43.200;27.920;2022-10-16T12:36:30;102050.66;;;25.72;32.59
6942;BME280;3510;43.200;27.920;2022-10-16T12:38:58;102053.75;;;26.04;31.32
6942;BME280;3510;43.200;27.920;2022-10-16T12:41:34;102046.72;;;24.83;32.11
6942;BME280;3510;43.200;27.920;2022-10-16T12:44:22;102068.28;;;24.85;31.92
6942;BME280;3510;43.200;27.920;2022-10-16T12:46:51;102055.06;;;25.34;31.57
6942;BME280;3510;43.200;27.920;2022-10-16T12:49:22;102065.22;;;25.12;31.43
6942;BME280;3510;43.200;27.920;2022-10-16T12:52:35;102068.78;;;26.14;31.50
6942;BME280;3510;43.200;27.920;2022-10-16T12:55:04;102060.59;;;25.44;31.63
6942;BME280;3510;43.200;27.920;2022-10-16T12:57:41;102065.00;;;25.46;31.16
6942;BME280;3510;43.200;27.920;2022-10-16T13:00:20;102069.47;;;25.50;31.13
6942;BME280;3510;43.200;27.920;2022-10-16T13:03:01;102063.41;;;25.69;30.86
6942;BME280;3510;43.200;27.920;2022-10-16T13:05:43;102070.47;;;24.58;31.41
6942;BME280;3510;43.200;27.920;2022-10-16T13:08:26;102067.47;;;24.86;31.32
6942;BME280;3510;43.200;27.920;2022-10-16T13:11:04;102064.06;;;24.87;30.90
6942;BME280;3510;43.200;27.920;2022-10-16T13:13:44;102057.09;;;24.85;30.38
6942;BME280;3510;43.200;27.920;2022-10-16T13:16:23;102046.66;;;24.28;30.81